sensor_id;sensor_type;location;lat;lon;timestamp;P1;durP1;ratioP1;P2;durP2;ratioP2
68993;SDS011;56054;50.968;5.816;2022-12-19T00:02:01;35.43;;;14.10;;
68993;SDS011;56054;50.968;5.816;2022-12-19T00:05:08;30.03;;;13.13;;
68993;SDS011;56054;50.968;5.816;2022-12-19T00:08:15;38.63;;;14.20;;
68993;SDS011;56054;50.968;5.816;2022-12-19T00:11:22;38.03;;;15.60;;
68993;SDS011;56054;50.968;5.816;2022-12-19T00:14:32;33.03;;;14.47;;
68993;SDS011;56054;50.968;5.816;2022-12-19T00:17:39;35.07;;;14.33;;
68993;SDS011;56054;50.968;5.816;2022-12-19T00:20:53;34.43;;;14.93;;
68993;SDS011;56054;50.968;5.816;2022-12-19T00:24:01;33.87;;;14.73;;
68993;SDS011;56054;50.968;5.816;2022-12-19T00:27:12;36.37;;;15.50;;
68993;SDS011;56054;50.968;5.816;2022-12-19T00:30:19;30.20;;;14.30;;
68993;SDS011;56054;50.968;5.816;2022-12-19T00:33:29;31.20;;;14.33;;
68993;SDS011;56054;50.968;5.816;2022-12-19T00:36:39;30.27;;;13.63;;
68993;SDS011;56054;50.968;5.816;2022-12-19T00:39:46;36.13;;;14.70;;
68993;SDS011;56054;50.968;5.816;2022-12-19T00:42:53;28.07;;;12.97;;
68993;SDS011;56054;50.968;5.816;2022-12-19T00:46:01;27.33;;;12.13;;
68993;SDS011;56054;50.968;5.816;2022-12-19T00:49:09;27.63;;;11.30;;
68993;SDS011;56054;50.968;5.816;2022-12-19T00:52:16;27.27;;;11.83;;
68993;SDS011;56054;50.968;5.816;2022-12-19T00:55:23;21.07;;;11.47;;
68993;SDS011;56054;50.968;5.816;2022-12-19T00:58:30;25.87;;;12.83;;
68993;SDS011;56054;50.968;5.816;2022-12-19T01:01:45;26.70;;;11.07;;
68993;SDS011;56054;50.968;5.816;2022-12-19T01:04:51;21.53;;;11.20;;
68993;SDS011;56054;50.968;5.816;2022-12-19T01:07:58;28.27;;;11.67;;
68993;SDS011;56054;50.968;5.816;2022-12-19T01:11:05;25.60;;;10.70;;
68993;SDS011;56054;50.968;5.816;2022-12-19T01:14:13;21.57;;;10.27;;
68993;SDS011;56054;50.968;5.816;2022-12-19T01:17:21;22.43;;;10.27;;
68993;SDS011;56054;50.968;5.816;2022-12-19T01:20:28;18.57;;;8.40;;
68993;SDS011;56054;50.968;5.816;2022-12-19T01:23:37;24.40;;;9.23;;
68993;SDS011;56054;50.968;5.816;2022-12-19T01:26:44;20.33;;;9.63;;
68993;SDS011;56054;50.968;5.816;2022-12-19T01:29:51;20.87;;;9.53;;
68993;SDS011;56054;50.968;5.816;2022-12-19T01:33:05;15.90;;;8.80;;
68993;SDS011;56054;50.968;5.816;2022-12-19T01:36:14;10.73;;;5.63;;
68993;SDS011;56054;50.968;5.816;2022-12-19T01:39:21;22.03;;;8.97;;
68993;SDS011;56054;50.968;5.816;2022-12-19T01:42:32;16.83;;;7.37;;
68993;SDS011;56054;50.968;5.816;2022-12-19T01:45:40;17.50;;;8.20;;
68993;SDS011;56054;50.968;5.816;2022-12-19T01:48:47;20.43;;;9.33;;
68993;SDS011;56054;50.968;5.816;2022-12-19T01:51:55;16.70;;;7.70;;
68993;SDS011;56054;50.968;5.816;2022-12-19T01:55:04;14.93;;;6.53;;
68993;SDS011;56054;50.968;5.816;2022-12-19T01:58:12;21.57;;;7.20;;
68993;SDS011;56054;50.968;5.816;2022-12-19T02:01:20;18.50;;;7.03;;
68993;SDS011;56054;50.968;5.816;2022-12-19T02:04:27;12.73;;;6.93;;
68993;SDS011;56054;50.968;5.816;2022-12-19T02:07:37;13.27;;;6.90;;
68993;SDS011;56054;50.968;5.816;2022-12-19T02:10:47;14.23;;;7.53;;
68993;SDS011;56054;50.968;5.816;2022-12-19T02:13:54;8.50;;;4.30;;
68993;SDS011;56054;50.968;5.816;2022-12-19T02:24:12;11.77;;;6.50;;
68993;SDS011;56054;50.968;5.816;2022-12-19T02:34:29;14.17;;;6.60;;
68993;SDS011;56054;50.968;5.816;2022-12-19T02:41:39;13.50;;;6.27;;
68993;SDS011;56054;50.968;5.816;2022-12-19T02:44:54;17.00;;;6.80;;
68993;SDS011;56054;50.968;5.816;2022-12-19T02:48:04;16.30;;;7.23;;
68993;SDS011;56054;50.968;5.816;2022-12-19T02:51:12;11.00;;;6.80;;
68993;SDS011;56054;50.968;5.816;2022-12-19T02:54:21;16.67;;;7.07;;
68993;SDS011;56054;50.968;5.816;2022-12-19T03:01:08;12.20;;;6.50;;
68993;SDS011;56054;50.968;5.816;2022-12-19T03:04:28;13.67;;;7.03;;
68993;SDS011;56054;50.968;5.816;2022-12-19T03:07:48;16.03;;;6.00;;
68993;SDS011;56054;50.968;5.816;2022-12-19T03:10:57;14.60;;;6.57;;
68993;SDS011;56054;50.968;5.816;2022-12-19T03:14:06;14.70;;;6.97;;
68993;SDS011;56054;50.968;5.816;2022-12-19T03:17:17;14.70;;;7.60;;
68993;SDS011;56054;50.968;5.816;2022-12-19T03:23:34;15.70;;;6.90;;
68993;SDS011;56054;50.968;5.816;2022-12-19T03:26:55;15.50;;;6.50;;
68993;SDS011;56054;50.968;5.816;2022-12-19T03:30:07;14.63;;;6.40;;
68993;SDS011;56054;50.968;5.816;2022-12-19T03:33:17;17.97;;;7.87;;
68993;SDS011;56054;50.968;5.816;2022-12-19T03:36:27;12.13;;;6.77;;
68993;SDS011;56054;50.968;5.816;2022-12-19T03:39:38;16.37;;;7.67;;
68993;SDS011;56054;50.968;5.816;2022-12-19T03:42:47;15.87;;;7.33;;
68993;SDS011;56054;50.968;5.816;2022-12-19T03:46:01;13.57;;;6.57;;
68993;SDS011;56054;50.968;5.816;2022-12-19T03:49:10;13.07;;;6.70;;
68993;SDS011;56054;50.968;5.816;2022-12-19T03:52:28;16.17;;;7.20;;
68993;SDS011;56054;50.968;5.816;2022-12-19T03:56:03;11.57;;;5.27;;
68993;SDS011;56054;50.968;5.816;2022-12-19T04:02:45;13.47;;;7.00;;
68993;SDS011;56054;50.968;5.816;2022-12-19T04:05:55;14.27;;;7.33;;
68993;SDS011;56054;50.968;5.816;2022-12-19T04:09:03;10.13;;;4.90;;
68993;SDS011;56054;50.968;5.816;2022-12-19T04:12:13;12.60;;;6.53;;
68993;SDS011;56054;50.968;5.816;2022-12-19T04:15:28;12.90;;;6.20;;
68993;SDS011;56054;50.968;5.816;2022-12-19T04:18:40;18.20;;;7.63;;
68993;SDS011;56054;50.968;5.816;2022-12-19T04:21:55;12.47;;;6.93;;
68993;SDS011;56054;50.968;5.816;2022-12-19T04:25:12;18.73;;;6.97;;
68993;SDS011;56054;50.968;5.816;2022-12-19T04:28:29;17.27;;;7.43;;
68993;SDS011;56054;50.968;5.816;2022-12-19T04:31:42;14.57;;;6.90;;
68993;SDS011;56054;50.968;5.816;2022-12-19T04:34:50;13.23;;;7.03;;
68993;SDS011;56054;50.968;5.816;2022-12-19T04:37:57;14.97;;;6.67;;
68993;SDS011;56054;50.968;5.816;2022-12-19T04:41:04;12.27;;;7.23;;
68993;SDS011;56054;50.968;5.816;2022-12-19T04:44:11;15.57;;;7.00;;
68993;SDS011;56054;50.968;5.816;2022-12-19T04:47:18;14.83;;;6.67;;
68993;SDS011;56054;50.968;5.816;2022-12-19T04:50:25;14.70;;;6.90;;
68993;SDS011;56054;50.968;5.816;2022-12-19T04:53:32;13.70;;;6.77;;
68993;SDS011;56054;50.968;5.816;2022-12-19T04:56:39;14.30;;;6.50;;
68993;SDS011;56054;50.968;5.816;2022-12-19T04:59:46;12.03;;;6.33;;
68993;SDS011;56054;50.968;5.816;2022-12-19T05:02:53;11.17;;;6.17;;
68993;SDS011;56054;50.968;5.816;2022-12-19T05:06:08;12.90;;;5.73;;
68993;SDS011;56054;50.968;5.816;2022-12-19T05:09:17;13.27;;;5.67;;
68993;SDS011;56054;50.968;5.816;2022-12-19T05:12:24;11.93;;;5.53;;
68993;SDS011;56054;50.968;5.816;2022-12-19T05:15:31;10.57;;;4.87;;
68993;SDS011;56054;50.968;5.816;2022-12-19T05:18:38;10.47;;;5.63;;
68993;SDS011;56054;50.968;5.816;2022-12-19T05:21:45;9.57;;;5.43;;
68993;SDS011;56054;50.968;5.816;2022-12-19T05:24:52;10.27;;;5.80;;
68993;SDS011;56054;50.968;5.816;2022-12-19T05:27:59;8.40;;;4.40;;
68993;SDS011;56054;50.968;5.816;2022-12-19T05:31:08;11.13;;;5.73;;
68993;SDS011;56054;50.968;5.816;2022-12-19T05:34:19;8.57;;;3.97;;
68993;SDS011;56054;50.968;5.816;2022-12-19T05:37:27;9.87;;;5.13;;
68993;SDS011;56054;50.968;5.816;2022-12-19T05:40:34;7.97;;;4.80;;
68993;SDS011;56054;50.968;5.816;2022-12-19T05:43:42;11.63;;;4.67;;
68993;SDS011;56054;50.968;5.816;2022-12-19T05:46:50;7.93;;;4.60;;
68993;SDS011;56054;50.968;5.816;2022-12-19T05:49:57;7.10;;;4.60;;
68993;SDS011;56054;50.968;5.816;2022-12-19T05:53:04;7.17;;;3.87;;
68993;SDS011;56054;50.968;5.816;2022-12-19T05:56:15;6.97;;;3.73;;
68993;SDS011;56054;50.968;5.816;2022-12-19T05:59:24;6.93;;;4.57;;
68993;SDS011;56054;50.968;5.816;2022-12-19T06:02:31;8.97;;;4.30;;
68993;SDS011;56054;50.968;5.816;2022-12-19T06:05:38;5.27;;;2.63;;
68993;SDS011;56054;50.968;5.816;2022-12-19T06:08:46;6.10;;;3.60;;
68993;SDS011;56054;50.968;5.816;2022-12-19T06:11:54;5.80;;;4.03;;
68993;SDS011;56054;50.968;5.816;2022-12-19T06:15:01;10.67;;;3.93;;
68993;SDS011;56054;50.968;5.816;2022-12-19T06:18:08;8.77;;;4.20;;
68993;SDS011;56054;50.968;5.816;2022-12-19T06:21:16;10.07;;;4.07;;
68993;SDS011;56054;50.968;5.816;2022-12-19T06:24:25;8.63;;;4.07;;
68993;SDS011;56054;50.968;5.816;2022-12-19T06:27:32;6.80;;;4.10;;
68993;SDS011;56054;50.968;5.816;2022-12-19T06:30:39;7.37;;;3.93;;
68993;SDS011;56054;50.968;5.816;2022-12-19T06:33:51;9.63;;;4.73;;
68993;SDS011;56054;50.968;5.816;2022-12-19T06:37:03;7.93;;;4.40;;
68993;SDS011;56054;50.968;5.816;2022-12-19T06:40:10;7.47;;;4.33;;
68993;SDS011;56054;50.968;5.816;2022-12-19T06:43:17;6.90;;;3.80;;
68993;SDS011;56054;50.968;5.816;2022-12-19T06:46:24;6.33;;;3.67;;
68993;SDS011;56054;50.968;5.816;2022-12-19T06:49:31;7.83;;;4.07;;
68993;SDS011;56054;50.968;5.816;2022-12-19T06:52:38;6.07;;;3.90;;
68993;SDS011;56054;50.968;5.816;2022-12-19T06:55:46;7.03;;;3.77;;
68993;SDS011;56054;50.968;5.816;2022-12-19T06:58:53;5.83;;;3.63;;
68993;SDS011;56054;50.968;5.816;2022-12-19T07:02:23;12.70;;;4.30;;
68993;SDS011;56054;50.968;5.816;2022-12-19T07:05:31;7.30;;;3.90;;
68993;SDS011;56054;50.968;5.816;2022-12-19T07:08:38;10.63;;;4.03;;
68993;SDS011;56054;50.968;5.816;2022-12-19T07:11:45;6.40;;;3.60;;
68993;SDS011;56054;50.968;5.816;2022-12-19T07:14:52;8.20;;;4.27;;
68993;SDS011;56054;50.968;5.816;2022-12-19T07:18:00;7.67;;;3.67;;
68993;SDS011;56054;50.968;5.816;2022-12-19T07:21:09;6.90;;;3.60;;
68993;SDS011;56054;50.968;5.816;2022-12-19T07:24:16;6.67;;;4.00;;
68993;SDS011;56054;50.968;5.816;2022-12-19T07:27:23;6.50;;;3.70;;
68993;SDS011;56054;50.968;5.816;2022-12-19T07:30:30;5.80;;;3.43;;
68993;SDS011;56054;50.968;5.816;2022-12-19T07:33:37;6.30;;;3.07;;
68993;SDS011;56054;50.968;5.816;2022-12-19T07:36:44;7.20;;;4.07;;
68993;SDS011;56054;50.968;5.816;2022-12-19T07:39:51;7.60;;;3.87;;
68993;SDS011;56054;50.968;5.816;2022-12-19T07:43:02;7.80;;;3.43;;
68993;SDS011;56054;50.968;5.816;2022-12-19T07:46:10;10.67;;;3.77;;
68993;SDS011;56054;50.968;5.816;2022-12-19T07:49:17;4.97;;;3.10;;
68993;SDS011;56054;50.968;5.816;2022-12-19T07:52:24;8.23;;;4.00;;
68993;SDS011;56054;50.968;5.816;2022-12-19T07:55:31;9.27;;;4.10;;
68993;SDS011;56054;50.968;5.816;2022-12-19T07:58:38;6.83;;;3.73;;
68993;SDS011;56054;50.968;5.816;2022-12-19T08:01:46;6.33;;;3.50;;
68993;SDS011;56054;50.968;5.816;2022-12-19T08:04:53;5.60;;;3.10;;
68993;SDS011;56054;50.968;5.816;2022-12-19T08:08:00;8.97;;;3.50;;
68993;SDS011;56054;50.968;5.816;2022-12-19T08:11:11;7.97;;;3.03;;
68993;SDS011;56054;50.968;5.816;2022-12-19T08:14:35;5.67;;;3.30;;
68993;SDS011;56054;50.968;5.816;2022-12-19T08:17:42;5.63;;;3.07;;
68993;SDS011;56054;50.968;5.816;2022-12-19T08:20:51;5.27;;;3.20;;
68993;SDS011;56054;50.968;5.816;2022-12-19T08:23:59;4.87;;;3.17;;
68993;SDS011;56054;50.968;5.816;2022-12-19T08:27:05;12.67;;;3.17;;
68993;SDS011;56054;50.968;5.816;2022-12-19T08:30:12;5.63;;;2.80;;
68993;SDS011;56054;50.968;5.816;2022-12-19T08:33:19;7.53;;;2.77;;
68993;SDS011;56054;50.968;5.816;2022-12-19T08:36:32;6.80;;;3.10;;
68993;SDS011;56054;50.968;5.816;2022-12-19T08:40:05;6.60;;;2.97;;
68993;SDS011;56054;50.968;5.816;2022-12-19T08:43:12;5.90;;;2.80;;
68993;SDS011;56054;50.968;5.816;2022-12-19T08:46:20;5.17;;;2.57;;
68993;SDS011;56054;50.968;5.816;2022-12-19T08:49:33;5.93;;;2.60;;
68993;SDS011;56054;50.968;5.816;2022-12-19T08:52:40;6.10;;;3.00;;
68993;SDS011;56054;50.968;5.816;2022-12-19T08:55:52;5.07;;;2.90;;
68993;SDS011;56054;50.968;5.816;2022-12-19T08:58:59;5.67;;;2.97;;
68993;SDS011;56054;50.968;5.816;2022-12-19T09:02:07;5.17;;;2.67;;
68993;SDS011;56054;50.968;5.816;2022-12-19T09:05:14;6.47;;;2.97;;
68993;SDS011;56054;50.968;5.816;2022-12-19T09:08:21;4.73;;;2.60;;
68993;SDS011;56054;50.968;5.816;2022-12-19T09:11:28;4.63;;;2.43;;
68993;SDS011;56054;50.968;5.816;2022-12-19T09:14:35;5.03;;;2.70;;
68993;SDS011;56054;50.968;5.816;2022-12-19T09:17:42;6.63;;;2.67;;
68993;SDS011;56054;50.968;5.816;2022-12-19T09:20:52;10.33;;;2.80;;
68993;SDS011;56054;50.968;5.816;2022-12-19T09:23:59;7.73;;;2.70;;
68993;SDS011;56054;50.968;5.816;2022-12-19T09:27:06;5.70;;;2.60;;
68993;SDS011;56054;50.968;5.816;2022-12-19T09:30:13;5.20;;;2.90;;
68993;SDS011;56054;50.968;5.816;2022-12-19T09:33:20;6.07;;;3.10;;
68993;SDS011;56054;50.968;5.816;2022-12-19T09:36:27;5.20;;;2.77;;
68993;SDS011;56054;50.968;5.816;2022-12-19T09:39:34;6.57;;;3.20;;
68993;SDS011;56054;50.968;5.816;2022-12-19T09:46:14;6.93;;;2.50;;
68993;SDS011;56054;50.968;5.816;2022-12-19T09:49:33;5.37;;;2.87;;
68993;SDS011;56054;50.968;5.816;2022-12-19T09:52:44;8.50;;;2.83;;
68993;SDS011;56054;50.968;5.816;2022-12-19T09:56:00;5.17;;;2.53;;
68993;SDS011;56054;50.968;5.816;2022-12-19T09:59:12;5.20;;;2.37;;
68993;SDS011;56054;50.968;5.816;2022-12-19T10:05:37;5.23;;;2.37;;
68993;SDS011;56054;50.968;5.816;2022-12-19T10:08:49;5.33;;;2.87;;
68993;SDS011;56054;50.968;5.816;2022-12-19T10:12:00;6.73;;;2.53;;
68993;SDS011;56054;50.968;5.816;2022-12-19T10:19:05;4.23;;;2.17;;
68993;SDS011;56054;50.968;5.816;2022-12-19T10:26:20;5.53;;;2.80;;
68993;SDS011;56054;50.968;5.816;2022-12-19T10:33:14;3.60;;;2.33;;
68993;SDS011;56054;50.968;5.816;2022-12-19T10:36:38;6.63;;;2.40;;
68993;SDS011;56054;50.968;5.816;2022-12-19T10:39:53;5.67;;;2.47;;
68993;SDS011;56054;50.968;5.816;2022-12-19T10:43:25;7.03;;;2.70;;
68993;SDS011;56054;50.968;5.816;2022-12-19T10:46:42;5.03;;;2.23;;
68993;SDS011;56054;50.968;5.816;2022-12-19T10:49:53;4.00;;;2.53;;
68993;SDS011;56054;50.968;5.816;2022-12-19T10:56:11;5.30;;;2.50;;
68993;SDS011;56054;50.968;5.816;2022-12-19T10:59:25;3.70;;;2.30;;
68993;SDS011;56054;50.968;5.816;2022-12-19T11:05:47;3.00;;;1.77;;
68993;SDS011;56054;50.968;5.816;2022-12-19T11:09:11;7.43;;;2.43;;
68993;SDS011;56054;50.968;5.816;2022-12-19T11:12:24;4.40;;;2.40;;
68993;SDS011;56054;50.968;5.816;2022-12-19T11:15:31;4.40;;;2.30;;
68993;SDS011;56054;50.968;5.816;2022-12-19T11:18:41;5.33;;;2.30;;
68993;SDS011;56054;50.968;5.816;2022-12-19T11:21:50;5.10;;;2.53;;
68993;SDS011;56054;50.968;5.816;2022-12-19T11:24:57;3.83;;;2.03;;
68993;SDS011;56054;50.968;5.816;2022-12-19T11:28:06;6.77;;;2.50;;
68993;SDS011;56054;50.968;5.816;2022-12-19T11:32:21;5.03;;;2.00;;
68993;SDS011;56054;50.968;5.816;2022-12-19T11:35:30;5.13;;;2.20;;
68993;SDS011;56054;50.968;5.816;2022-12-19T11:38:58;4.93;;;2.33;;
68993;SDS011;56054;50.968;5.816;2022-12-19T11:42:10;6.87;;;2.20;;
68993;SDS011;56054;50.968;5.816;2022-12-19T11:52:05;2.70;;;1.80;;
68993;SDS011;56054;50.968;5.816;2022-12-19T11:59:24;4.03;;;2.17;;
68993;SDS011;56054;50.968;5.816;2022-12-19T12:06:02;5.27;;;1.63;;
68993;SDS011;56054;50.968;5.816;2022-12-19T12:09:33;4.83;;;1.90;;
68993;SDS011;56054;50.968;5.816;2022-12-19T12:16:59;4.30;;;1.80;;
68993;SDS011;56054;50.968;5.816;2022-12-19T12:20:35;6.37;;;1.77;;
68993;SDS011;56054;50.968;5.816;2022-12-19T12:30:51;3.40;;;1.70;;
68993;SDS011;56054;50.968;5.816;2022-12-19T12:44:49;3.60;;;1.60;;
68993;SDS011;56054;50.968;5.816;2022-12-19T12:48:00;5.97;;;1.80;;
68993;SDS011;56054;50.968;5.816;2022-12-19T12:51:08;4.03;;;1.90;;
68993;SDS011;56054;50.968;5.816;2022-12-19T12:54:15;3.73;;;1.63;;
68993;SDS011;56054;50.968;5.816;2022-12-19T13:00:33;4.37;;;2.17;;
68993;SDS011;56054;50.968;5.816;2022-12-19T13:03:42;3.30;;;1.80;;
68993;SDS011;56054;50.968;5.816;2022-12-19T13:10:21;3.20;;;1.90;;
68993;SDS011;56054;50.968;5.816;2022-12-19T13:13:46;5.40;;;1.43;;
68993;SDS011;56054;50.968;5.816;2022-12-19T13:17:01;3.00;;;1.70;;
68993;SDS011;56054;50.968;5.816;2022-12-19T13:20:38;5.33;;;1.70;;
68993;SDS011;56054;50.968;5.816;2022-12-19T13:23:58;7.07;;;1.93;;
68993;SDS011;56054;50.968;5.816;2022-12-19T13:30:26;3.50;;;1.60;;
68993;SDS011;56054;50.968;5.816;2022-12-19T13:34:28;2.13;;;1.20;;
68993;SDS011;56054;50.968;5.816;2022-12-19T13:37:25;4.67;;;1.50;;
68993;SDS011;56054;50.968;5.816;2022-12-19T13:43:49;3.77;;;1.40;;
68993;SDS011;56054;50.968;5.816;2022-12-19T13:47:00;2.17;;;1.20;;
68993;SDS011;56054;50.968;5.816;2022-12-19T13:50:28;3.87;;;1.40;;
68993;SDS011;56054;50.968;5.816;2022-12-19T13:53:39;2.53;;;1.50;;
68993;SDS011;56054;50.968;5.816;2022-12-19T13:56:48;2.67;;;1.40;;
68993;SDS011;56054;50.968;5.816;2022-12-19T14:00:00;9.90;;;2.30;;
68993;SDS011;56054;50.968;5.816;2022-12-19T14:03:14;5.33;;;1.70;;
68993;SDS011;56054;50.968;5.816;2022-12-19T14:06:24;3.30;;;1.77;;
68993;SDS011;56054;50.968;5.816;2022-12-19T14:09:38;3.13;;;1.53;;
68993;SDS011;56054;50.968;5.816;2022-12-19T14:12:47;6.77;;;1.60;;
68993;SDS011;56054;50.968;5.816;2022-12-19T14:15:55;2.60;;;1.40;;
68993;SDS011;56054;50.968;5.816;2022-12-19T14:19:02;2.00;;;1.13;;
68993;SDS011;56054;50.968;5.816;2022-12-19T14:22:10;3.73;;;1.20;;
68993;SDS011;56054;50.968;5.816;2022-12-19T14:25:17;6.63;;;1.77;;
68993;SDS011;56054;50.968;5.816;2022-12-19T14:28:26;3.33;;;1.67;;
68993;SDS011;56054;50.968;5.816;2022-12-19T14:31:39;3.07;;;1.53;;
68993;SDS011;56054;50.968;5.816;2022-12-19T14:34:47;2.30;;;1.30;;
68993;SDS011;56054;50.968;5.816;2022-12-19T14:38:02;5.87;;;1.70;;
68993;SDS011;56054;50.968;5.816;2022-12-19T14:41:46;3.03;;;1.20;;
68993;SDS011;56054;50.968;5.816;2022-12-19T14:44:52;3.10;;;1.30;;
68993;SDS011;56054;50.968;5.816;2022-12-19T14:48:00;2.10;;;1.30;;
68993;SDS011;56054;50.968;5.816;2022-12-19T14:54:16;1.90;;;1.10;;
68993;SDS011;56054;50.968;5.816;2022-12-19T14:57:24;4.90;;;1.50;;
68993;SDS011;56054;50.968;5.816;2022-12-19T15:00:32;5.87;;;1.50;;
68993;SDS011;56054;50.968;5.816;2022-12-19T15:03:54;4.90;;;1.33;;
68993;SDS011;56054;50.968;5.816;2022-12-19T15:07:17;3.53;;;1.47;;
68993;SDS011;56054;50.968;5.816;2022-12-19T15:10:27;4.97;;;1.40;;
68993;SDS011;56054;50.968;5.816;2022-12-19T15:13:37;2.67;;;1.30;;
68993;SDS011;56054;50.968;5.816;2022-12-19T15:16:45;4.83;;;1.83;;
68993;SDS011;56054;50.968;5.816;2022-12-19T15:19:52;2.67;;;1.27;;
68993;SDS011;56054;50.968;5.816;2022-12-19T15:22:59;4.13;;;1.80;;
68993;SDS011;56054;50.968;5.816;2022-12-19T15:26:10;3.97;;;1.77;;
68993;SDS011;56054;50.968;5.816;2022-12-19T15:29:19;5.17;;;1.90;;
68993;SDS011;56054;50.968;5.816;2022-12-19T15:32:26;4.60;;;2.00;;
68993;SDS011;56054;50.968;5.816;2022-12-19T15:35:33;8.53;;;3.60;;
68993;SDS011;56054;50.968;5.816;2022-12-19T15:38:40;9.73;;;3.40;;
68993;SDS011;56054;50.968;5.816;2022-12-19T15:41:49;4.63;;;2.93;;
68993;SDS011;56054;50.968;5.816;2022-12-19T15:44:58;5.97;;;2.60;;
68993;SDS011;56054;50.968;5.816;2022-12-19T15:48:07;9.53;;;2.27;;
68993;SDS011;56054;50.968;5.816;2022-12-19T15:51:20;5.57;;;2.33;;
68993;SDS011;56054;50.968;5.816;2022-12-19T15:54:27;5.53;;;2.10;;
68993;SDS011;56054;50.968;5.816;2022-12-19T15:57:35;5.93;;;2.70;;
68993;SDS011;56054;50.968;5.816;2022-12-19T16:00:49;4.00;;;1.93;;
68993;SDS011;56054;50.968;5.816;2022-12-19T16:03:59;6.17;;;2.10;;
68993;SDS011;56054;50.968;5.816;2022-12-19T16:07:16;3.63;;;1.90;;
68993;SDS011;56054;50.968;5.816;2022-12-19T16:10:26;2.83;;;1.60;;
68993;SDS011;56054;50.968;5.816;2022-12-19T16:13:34;4.10;;;2.03;;
68993;SDS011;56054;50.968;5.816;2022-12-19T16:16:43;5.77;;;1.90;;
68993;SDS011;56054;50.968;5.816;2022-12-19T16:19:55;2.53;;;1.57;;
68993;SDS011;56054;50.968;5.816;2022-12-19T16:23:02;2.70;;;1.67;;
68993;SDS011;56054;50.968;5.816;2022-12-19T16:29:39;5.73;;;1.37;;
68993;SDS011;56054;50.968;5.816;2022-12-19T16:32:47;2.57;;;1.47;;
68993;SDS011;56054;50.968;5.816;2022-12-19T16:35:55;2.77;;;1.43;;
68993;SDS011;56054;50.968;5.816;2022-12-19T16:39:02;4.83;;;2.00;;
68993;SDS011;56054;50.968;5.816;2022-12-19T16:42:18;3.73;;;1.40;;
68993;SDS011;56054;50.968;5.816;2022-12-19T16:45:25;4.57;;;1.67;;
68993;SDS011;56054;50.968;5.816;2022-12-19T16:48:35;4.60;;;1.50;;
68993;SDS011;56054;50.968;5.816;2022-12-19T16:51:43;4.70;;;1.80;;
68993;SDS011;56054;50.968;5.816;2022-12-19T16:54:50;9.93;;;1.80;;
68993;SDS011;56054;50.968;5.816;2022-12-19T16:58:07;4.27;;;1.53;;
68993;SDS011;56054;50.968;5.816;2022-12-19T17:01:21;4.00;;;2.00;;
68993;SDS011;56054;50.968;5.816;2022-12-19T17:04:37;5.10;;;1.77;;
68993;SDS011;56054;50.968;5.816;2022-12-19T17:07:44;5.13;;;1.70;;
68993;SDS011;56054;50.968;5.816;2022-12-19T17:10:57;2.90;;;1.57;;
68993;SDS011;56054;50.968;5.816;2022-12-19T17:14:06;5.20;;;1.47;;
68993;SDS011;56054;50.968;5.816;2022-12-19T17:17:17;3.80;;;1.67;;
68993;SDS011;56054;50.968;5.816;2022-12-19T17:20:26;6.97;;;2.47;;
68993;SDS011;56054;50.968;5.816;2022-12-19T17:23:37;8.03;;;2.73;;
68993;SDS011;56054;50.968;5.816;2022-12-19T17:26:45;4.80;;;2.20;;
68993;SDS011;56054;50.968;5.816;2022-12-19T17:29:52;5.40;;;2.00;;
68993;SDS011;56054;50.968;5.816;2022-12-19T17:36:45;3.90;;;1.90;;
68993;SDS011;56054;50.968;5.816;2022-12-19T17:39:52;3.63;;;1.90;;
68993;SDS011;56054;50.968;5.816;2022-12-19T17:43:03;4.30;;;1.70;;
68993;SDS011;56054;50.968;5.816;2022-12-19T17:46:17;4.80;;;1.73;;
68993;SDS011;56054;50.968;5.816;2022-12-19T17:49:26;4.27;;;1.57;;
68993;SDS011;56054;50.968;5.816;2022-12-19T17:52:34;5.90;;;1.53;;
68993;SDS011;56054;50.968;5.816;2022-12-19T17:55:41;2.57;;;1.40;;
68993;SDS011;56054;50.968;5.816;2022-12-19T17:58:48;2.33;;;1.40;;
68993;SDS011;56054;50.968;5.816;2022-12-19T18:01:58;3.23;;;1.50;;
68993;SDS011;56054;50.968;5.816;2022-12-19T18:05:05;3.73;;;1.33;;
68993;SDS011;56054;50.968;5.816;2022-12-19T18:08:27;6.70;;;1.87;;
68993;SDS011;56054;50.968;5.816;2022-12-19T18:11:34;3.57;;;1.50;;
68993;SDS011;56054;50.968;5.816;2022-12-19T18:14:41;5.60;;;1.47;;
68993;SDS011;56054;50.968;5.816;2022-12-19T18:17:49;3.33;;;1.70;;
68993;SDS011;56054;50.968;5.816;2022-12-19T18:21:01;3.67;;;1.40;;
68993;SDS011;56054;50.968;5.816;2022-12-19T18:24:39;3.30;;;1.67;;
68993;SDS011;56054;50.968;5.816;2022-12-19T18:28:14;5.83;;;1.60;;
68993;SDS011;56054;50.968;5.816;2022-12-19T18:31:39;3.37;;;1.63;;
68993;SDS011;56054;50.968;5.816;2022-12-19T18:34:51;4.07;;;1.40;;
68993;SDS011;56054;50.968;5.816;2022-12-19T18:38:06;3.43;;;1.43;;
68993;SDS011;56054;50.968;5.816;2022-12-19T18:41:44;1.87;;;1.10;;
68993;SDS011;56054;50.968;5.816;2022-12-19T18:53:43;2.43;;;1.23;;
68993;SDS011;56054;50.968;5.816;2022-12-19T18:56:53;5.97;;;1.83;;
68993;SDS011;56054;50.968;5.816;2022-12-19T19:00:00;4.70;;;1.40;;
68993;SDS011;56054;50.968;5.816;2022-12-19T19:03:11;5.97;;;1.77;;
68993;SDS011;56054;50.968;5.816;2022-12-19T19:06:27;3.33;;;1.43;;
68993;SDS011;56054;50.968;5.816;2022-12-19T19:09:38;3.03;;;1.60;;
68993;SDS011;56054;50.968;5.816;2022-12-19T19:13:05;3.43;;;1.40;;
68993;SDS011;56054;50.968;5.816;2022-12-19T19:16:22;3.30;;;1.30;;
68993;SDS011;56054;50.968;5.816;2022-12-19T19:19:32;2.33;;;1.40;;
68993;SDS011;56054;50.968;5.816;2022-12-19T19:22:41;4.17;;;1.40;;
68993;SDS011;56054;50.968;5.816;2022-12-19T19:25:48;6.13;;;2.10;;
68993;SDS011;56054;50.968;5.816;2022-12-19T19:28:55;2.97;;;1.53;;
68993;SDS011;56054;50.968;5.816;2022-12-19T19:32:02;3.40;;;1.30;;
68993;SDS011;56054;50.968;5.816;2022-12-19T19:35:09;4.17;;;1.40;;
68993;SDS011;56054;50.968;5.816;2022-12-19T19:38:17;5.10;;;1.37;;
68993;SDS011;56054;50.968;5.816;2022-12-19T19:41:32;2.00;;;1.40;;
68993;SDS011;56054;50.968;5.816;2022-12-19T19:44:42;1.23;;;0.93;;
68993;SDS011;56054;50.968;5.816;2022-12-19T19:48:06;4.33;;;1.43;;
68993;SDS011;56054;50.968;5.816;2022-12-19T19:51:16;6.30;;;1.63;;
68993;SDS011;56054;50.968;5.816;2022-12-19T19:54:33;3.83;;;1.60;;
68993;SDS011;56054;50.968;5.816;2022-12-19T19:57:40;4.10;;;1.70;;
68993;SDS011;56054;50.968;5.816;2022-12-19T20:00:50;2.00;;;1.17;;
68993;SDS011;56054;50.968;5.816;2022-12-19T20:03:57;3.77;;;1.30;;
68993;SDS011;56054;50.968;5.816;2022-12-19T20:07:09;3.50;;;1.40;;
68993;SDS011;56054;50.968;5.816;2022-12-19T20:13:46;2.63;;;1.30;;
68993;SDS011;56054;50.968;5.816;2022-12-19T20:16:53;3.60;;;1.27;;
68993;SDS011;56054;50.968;5.816;2022-12-19T20:20:15;2.73;;;1.20;;
68993;SDS011;56054;50.968;5.816;2022-12-19T20:23:22;4.53;;;1.47;;
68993;SDS011;56054;50.968;5.816;2022-12-19T20:26:55;2.80;;;1.30;;
68993;SDS011;56054;50.968;5.816;2022-12-19T20:30:04;2.30;;;1.33;;
68993;SDS011;56054;50.968;5.816;2022-12-19T20:33:12;4.37;;;1.60;;
68993;SDS011;56054;50.968;5.816;2022-12-19T20:36:24;4.63;;;1.40;;
68993;SDS011;56054;50.968;5.816;2022-12-19T20:39:33;3.87;;;1.40;;
68993;SDS011;56054;50.968;5.816;2022-12-19T20:42:55;6.37;;;1.50;;
68993;SDS011;56054;50.968;5.816;2022-12-19T20:46:07;4.60;;;1.43;;
68993;SDS011;56054;50.968;5.816;2022-12-19T20:49:41;2.20;;;1.20;;
68993;SDS011;56054;50.968;5.816;2022-12-19T20:52:51;3.53;;;1.20;;
68993;SDS011;56054;50.968;5.816;2022-12-19T20:56:06;2.60;;;1.30;;
68993;SDS011;56054;50.968;5.816;2022-12-19T20:59:15;3.10;;;1.33;;
68993;SDS011;56054;50.968;5.816;2022-12-19T21:02:31;2.50;;;1.27;;
68993;SDS011;56054;50.968;5.816;2022-12-19T21:05:38;2.77;;;1.20;;
68993;SDS011;56054;50.968;5.816;2022-12-19T21:08:47;3.37;;;1.20;;
68993;SDS011;56054;50.968;5.816;2022-12-19T21:11:54;3.30;;;1.30;;